Time;durP1;ratioP1;P1;durP2;ratioP2;P2;SDS_P1;SDS_P2;PMS_P1;PMS_P2;Temp;Humidity;BMP_temperature;BMP_pressure;BME280_temperature;BME280_humidity;BME280_pressure;Samples;Min_cycle;Max_cycle;Signal;HPM_P1;HPM_P2
2023/05/16 00:00:05;;;;;;;21.40;9.60;;;;;;;-148.88;100.00;-17125.47;4996552;28;20040;-87
2023/05/16 00:02:31;;;;;;;18.48;9.38;;;;;;;-148.88;100.00;-17125.47;5014382;28;20025;-88
2023/05/16 00:04:57;;;;;;;20.88;15.50;;;;;;;-148.88;100.00;-17125.47;5014939;28;20026;-87
2023/05/16 00:07:22;;;;;;;21.38;10.02;;;;;;;-148.88;100.00;-17125.47;4997027;28;20068;-88
2023/05/16 00:09:48;;;;;;;19.58;9.02;;;;;;;-148.88;100.00;-17125.47;5014342;28;20032;-88
2023/05/16 00:12:13;;;;;;;18.30;8.52;;;;;;;-148.88;100.00;-17125.47;4996561;28;20054;-89
2023/05/16 00:14:39;;;;;;;18.58;13.05;;;;;;;-148.88;100.00;-17125.47;4997037;28;20380;-89
2023/05/16 00:17:10;;;;;;;19.70;12.27;;;;;;;-148.88;100.00;-17125.47;4996361;28;20025;-89
2023/05/16 00:19:39;;;;;;;14.95;6.50;;;;;;;-148.88;100.00;-17125.47;5014320;28;20025;-90
2023/05/16 00:22:05;;;;;;;12.00;5.65;;;;;;;-148.88;100.00;-17125.47;4996890;28;20523;-90
2023/05/16 00:24:31;;;;;;;13.20;9.82;;;;;;;-148.88;100.00;-17125.47;4996552;28;20022;-89
2023/05/16 00:26:56;;;;;;;10.80;5.07;;;;;;;-148.88;100.00;-17125.47;5014112;28;20476;-90
2023/05/16 00:29:23;;;;;;;12.40;9.82;;;;;;;-148.88;100.00;-17125.47;4997389;28;20032;-88
2023/05/16 00:31:51;;;;;;;11.15;4.75;;;;;;;-148.88;100.00;-17125.47;4997779;28;20037;-90
2023/05/16 00:34:20;;;;;;;8.65;3.75;;;;;;;-148.88;100.00;-17125.47;5014441;28;20511;-89
2023/05/16 00:36:49;;;;;;;12.35;7.40;;;;;;;-148.88;100.00;-17125.47;4997602;28;20037;-89
2023/05/16 00:39:14;;;;;;;10.63;6.05;;;;;;;-148.88;100.00;-17125.47;4996354;28;20392;-89
2023/05/16 00:41:40;;;;;;;7.38;3.95;;;;;;;-148.88;100.00;-17125.47;4996526;28;20033;-89
2023/05/16 00:44:06;;;;;;;7.70;3.67;;;;;;;-148.88;100.00;-17125.47;4996796;28;20022;-89
2023/05/16 00:46:31;;;;;;;8.75;4.28;;;;;;;-148.88;100.00;-17125.47;4996555;28;20469;-88
2023/05/16 00:48:57;;;;;;;8.95;6.10;;;;;;;-148.88;100.00;-17125.47;4996090;28;20124;-88
2023/05/16 00:51:23;;;;;;;8.15;6.03;;;;;;;-148.88;100.00;-17125.47;4999527;28;20021;-89
2023/05/16 00:53:49;;;;;;;7.00;3.72;;;;;;;-148.88;100.00;-17125.47;5017837;28;20025;-89
2023/05/16 00:56:16;;;;;;;7.10;3.83;;;;;;;-148.88;100.00;-17125.47;5000063;28;20022;-87
2023/05/16 00:58:41;;;;;;;9.05;3.92;;;;;;;-148.88;100.00;-17125.47;5018193;28;20449;-87
2023/05/16 01:01:09;;;;;;;8.35;4.05;;;;;;;-148.88;100.00;-17125.47;5020015;28;20058;-89
2023/05/16 01:03:38;;;;;;;11.02;3.55;;;;;;;-148.88;100.00;-17125.47;5019748;28;20030;-89
2023/05/16 01:06:03;;;;;;;6.70;3.78;;;;;;;-148.88;100.00;-17125.47;5002139;28;20034;-87
2023/05/16 01:08:29;;;;;;;7.28;3.75;;;;;;;-148.88;100.00;-17125.47;5020660;28;20032;-87
2023/05/16 01:11:06;;;;;;;9.38;4.15;;;;;;;-148.88;100.00;-17125.47;5001624;28;20022;-86
2023/05/16 01:13:41;;;;;;;6.47;3.65;;;;;;;-148.88;100.00;-17125.47;5001995;28;20098;-89
2023/05/16 01:16:35;;;;;;;9.15;3.85;;;;;;;-148.88;100.00;-17125.47;5002483;28;20469;-89
2023/05/16 01:19:19;;;;;;;12.27;7.38;;;;;;;-148.88;100.00;-17125.47;5019012;28;20026;-90
2023/05/16 01:21:56;;;;;;;7.43;3.30;;;;;;;-148.88;100.00;-17125.47;5018530;28;20053;-89
2023/05/16 01:24:31;;;;;;;7.07;3.88;;;;;;;-148.88;100.00;-17125.47;5000612;28;20026;-89
2023/05/16 01:27:03;;;;;;;7.45;3.47;;;;;;;-148.88;100.00;-17125.47;5017531;28;20029;-88
2023/05/16 01:29:29;;;;;;;11.18;7.28;;;;;;;-148.88;100.00;-17125.47;4999337;28;20064;-89
2023/05/16 01:31:54;;;;;;;8.77;4.03;;;;;;;-148.88;100.00;-17125.47;4999510;28;20057;-88
2023/05/16 01:34:20;;;;;;;9.18;3.60;;;;;;;-148.88;100.00;-17125.47;5000851;28;20032;-88
2023/05/16 01:37:22;;;;;;;7.07;3.60;;;;;;;-148.88;100.00;-17125.47;5000277;28;20034;-87
2023/05/16 01:40:27;;;;;;;8.40;3.45;;;;;;;-148.88;100.00;-17125.47;5001047;28;20559;-88
2023/05/16 01:43:06;;;;;;;10.45;4.30;;;;;;;-148.88;100.00;-17125.47;4989079;28;20033;-90
2023/05/16 01:45:41;;;;;;;12.20;3.55;;;;;;;-148.88;100.00;-17125.47;5001605;28;20026;-87
2023/05/16 01:48:19;;;;;;;16.45;8.43;;;;;;;-148.88;100.00;-17125.47;5001014;28;20033;-89
2023/05/16 01:50:54;;;;;;;10.63;3.83;;;;;;;-148.88;100.00;-17125.47;4999976;28;20025;-89
2023/05/16 01:53:32;;;;;;;11.02;4.55;;;;;;;-148.88;100.00;-17125.47;5001026;28;20022;-90
2023/05/16 01:56:06;;;;;;;12.23;7.28;;;;;;;-148.88;100.00;-17125.47;5000930;28;20057;-90
2023/05/16 01:58:35;;;;;;;12.43;6.80;;;;;;;-148.88;100.00;-17125.47;4999848;28;20042;-89
2023/05/16 02:01:02;;;;;;;8.70;3.53;;;;;;;-148.88;100.00;-17125.47;4999897;28;20040;-90
2023/05/16 02:03:32;;;;;;;12.75;4.50;;;;;;;-148.88;100.00;-17125.47;5017463;28;20049;-91
2023/05/16 02:06:01;;;;;;;8.38;3.40;;;;;;;-148.88;100.00;-17125.47;5018165;28;20034;-89
2023/05/16 02:08:27;;;;;;;11.20;6.35;;;;;;;-148.88;100.00;-17125.47;5001452;28;20018;-90
2023/05/16 02:10:56;;;;;;;10.60;3.60;;;;;;;-148.88;100.00;-17125.47;5000891;28;20026;-90
2023/05/16 02:13:21;;;;;;;11.35;3.85;;;;;;;-148.88;100.00;-17125.47;4999530;28;20117;-89
2023/05/16 02:15:46;;;;;;;8.32;3.30;;;;;;;-148.88;100.00;-17125.47;5017366;28;20069;-87
2023/05/16 02:18:12;;;;;;;14.93;6.20;;;;;;;-148.88;100.00;-17125.47;4998546;28;20102;-90
2023/05/16 02:20:40;;;;;;;6.80;3.20;;;;;;;-148.88;100.00;-17125.47;5015754;28;20512;-87
2023/05/16 02:23:05;;;;;;;11.50;3.42;;;;;;;-148.88;100.00;-17125.47;4998775;28;20488;-88
2023/05/16 02:25:31;;;;;;;10.95;3.30;;;;;;;-148.88;100.00;-17125.47;5016629;28;20035;-90
2023/05/16 02:27:56;;;;;;;8.65;3.58;;;;;;;-148.88;100.00;-17125.47;4998308;28;20026;-87
2023/05/16 02:30:25;;;;;;;10.75;3.63;;;;;;;-148.88;100.00;-17125.47;4999153;28;20036;-88
2023/05/16 02:32:52;;;;;;;11.80;4.00;;;;;;;-148.88;100.00;-17125.47;5016486;28;20025;-88
2023/05/16 02:35:17;;;;;;;11.93;2.72;;;;;;;-148.88;100.00;-17125.47;4997898;28;20026;-89
2023/05/16 02:37:43;;;;;;;8.55;2.42;;;;;;;-148.88;100.00;-17125.47;5015595;28;20053;-88
2023/05/16 02:40:09;;;;;;;7.53;2.55;;;;;;;-148.88;100.00;-17125.47;4998102;28;20117;-88
2023/05/16 02:42:34;;;;;;;8.20;2.60;;;;;;;-148.88;100.00;-17125.47;4997967;28;20057;-88
2023/05/16 02:44:59;;;;;;;20.98;2.92;;;;;;;-148.88;100.00;-17125.47;5015234;28;20087;-89
2023/05/16 02:47:25;;;;;;;11.05;2.40;;;;;;;-148.88;100.00;-17125.47;5015423;28;20075;-88
2023/05/16 02:49:51;;;;;;;12.15;2.88;;;;;;;-148.88;100.00;-17125.47;5015445;28;20098;-87
2023/05/16 02:52:17;;;;;;;7.13;2.47;;;;;;;-148.88;100.00;-17125.47;4998278;28;20044;-87
2023/05/16 02:54:42;;;;;;;11.75;3.70;;;;;;;-148.88;100.00;-17125.47;5015154;28;20495;-86
2023/05/16 02:57:08;;;;;;;7.68;3.78;;;;;;;-148.88;100.00;-17125.47;4998292;28;20026;-88
2023/05/16 02:59:35;;;;;;;9.20;2.65;;;;;;;-148.88;100.00;-17125.47;4998177;28;20489;-88
2023/05/16 03:02:00;;;;;;;6.82;2.88;;;;;;;-148.88;100.00;-17125.47;4997560;28;20530;-89
2023/05/16 03:04:26;;;;;;;8.90;2.65;;;;;;;-148.88;100.00;-17125.47;5015370;28;20041;-88
2023/05/16 03:06:51;;;;;;;10.75;4.25;;;;;;;-148.88;100.00;-17125.47;5015006;28;20032;-88
2023/05/16 03:09:17;;;;;;;6.80;2.05;;;;;;;-148.88;100.00;-17125.47;5014662;28;20026;-86
2023/05/16 03:11:42;;;;;;;14.50;2.58;;;;;;;-148.88;100.00;-17125.47;4997215;28;20026;-86
2023/05/16 03:14:08;;;;;;;15.00;2.40;;;;;;;-148.88;100.00;-17125.47;4997330;28;20498;-86
2023/05/16 03:16:35;;;;;;;10.05;3.47;;;;;;;-148.88;100.00;-17125.47;5014947;28;20422;-87
2023/05/16 03:19:01;;;;;;;11.27;2.35;;;;;;;-148.88;100.00;-17125.47;4996691;28;20400;-89
2023/05/16 03:21:26;;;;;;;10.95;2.30;;;;;;;-148.88;100.00;-17125.47;5014249;28;20025;-86
2023/05/16 03:23:53;;;;;;;6.00;2.03;;;;;;;-148.88;100.00;-17125.47;4996794;28;20057;-88
2023/05/16 03:26:20;;;;;;;12.32;2.20;;;;;;;-148.88;100.00;-17125.47;5014197;28;20053;-88
2023/05/16 03:28:45;;;;;;;11.35;2.33;;;;;;;-148.88;100.00;-17125.47;5014288;28;20033;-87
2023/05/16 03:31:11;;;;;;;8.57;2.80;;;;;;;-148.88;100.00;-17125.47;4996485;28;20018;-87
2023/05/16 03:33:36;;;;;;;5.82;2.15;;;;;;;-148.88;100.00;-17125.47;5014435;28;20018;-88
2023/05/16 03:36:02;;;;;;;7.78;1.92;;;;;;;-148.88;100.00;-17125.47;4996837;28;20052;-89
2023/05/16 03:38:28;;;;;;;14.93;2.42;;;;;;;-148.88;100.00;-17125.47;5014206;28;20025;-86
2023/05/16 03:40:53;;;;;;;12.63;2.45;;;;;;;-148.88;100.00;-17125.47;5014528;28;20392;-86
2023/05/16 03:43:19;;;;;;;8.50;2.10;;;;;;;-148.88;100.00;-17125.47;4996726;28;20072;-87
2023/05/16 03:45:44;;;;;;;8.95;2.50;;;;;;;-148.88;100.00;-17125.47;4996334;28;20072;-85
2023/05/16 03:48:09;;;;;;;16.98;4.15;;;;;;;-148.88;100.00;-17125.47;5013894;28;20054;-88
2023/05/16 03:50:36;;;;;;;9.55;2.60;;;;;;;-148.88;100.00;-17125.47;4996578;28;20388;-86
2023/05/16 03:53:02;;;;;;;11.63;2.67;;;;;;;-148.88;100.00;-17125.47;5014182;28;20025;-86
2023/05/16 03:55:29;;;;;;;5.18;2.15;;;;;;;-148.88;100.00;-17125.47;4996875;28;20022;-91
2023/05/16 03:57:55;;;;;;;17.45;3.17;;;;;;;-148.88;100.00;-17125.47;4996449;28;20068;-90
2023/05/16 04:00:20;;;;;;;14.93;2.50;;;;;;;-148.88;100.00;-17125.47;4996403;28;20038;-90
2023/05/16 04:02:46;;;;;;;11.60;2.15;;;;;;;-148.88;100.00;-17125.47;4997050;28;20498;-91
2023/05/16 04:05:12;;;;;;;11.20;2.10;;;;;;;-148.88;100.00;-17125.47;4997192;28;20033;-89
2023/05/16 04:07:38;;;;;;;7.25;2.00;;;;;;;-148.88;100.00;-17125.47;4996081;28;20026;-91
2023/05/16 04:10:04;;;;;;;13.05;2.42;;;;;;;-148.88;100.00;-17125.47;4996265;28;20022;-87
2023/05/16 04:12:29;;;;;;;17.30;4.25;;;;;;;-148.88;100.00;-17125.47;4996302;28;20057;-89
2023/05/16 04:14:55;;;;;;;14.75;2.35;;;;;;;-148.88;100.00;-17125.47;5013713;28;20033;-86
2023/05/16 04:17:20;;;;;;;10.40;1.95;;;;;;;-148.88;100.00;-17125.47;4996456;28;20052;-87
2023/05/16 04:19:46;;;;;;;10.68;2.35;;;;;;;-148.88;100.00;-17125.47;4996209;28;20021;-87
2023/05/16 04:22:11;;;;;;;10.32;1.90;;;;;;;-148.88;100.00;-17125.47;5013396;28;20022;-87
2023/05/16 04:24:36;;;;;;;10.52;2.63;;;;;;;-148.88;100.00;-17125.47;4997763;28;20034;-88
2023/05/16 04:27:03;;;;;;;14.57;2.70;;;;;;;-148.88;100.00;-17125.47;5002202;28;20021;-87
2023/05/16 04:29:29;;;;;;;9.18;1.80;;;;;;;-148.88;100.00;-17125.47;5019755;28;20029;-86
2023/05/16 04:31:55;;;;;;;20.58;3.45;;;;;;;-148.88;100.00;-17125.47;5019833;28;20113;-87
2023/05/16 04:34:21;;;;;;;7.57;1.80;;;;;;;-148.88;100.00;-17125.47;5003854;28;20135;-87
2023/05/16 04:36:47;;;;;;;15.60;2.35;;;;;;;-148.88;100.00;-17125.47;5020709;28;20021;-87
2023/05/16 04:39:12;;;;;;;13.07;2.80;;;;;;;-148.88;100.00;-17125.47;5020701;28;20022;-88
2023/05/16 04:41:38;;;;;;;4.55;1.88;;;;;;;-148.88;100.00;-17125.47;5002668;28;20034;-86
2023/05/16 04:44:04;;;;;;;17.23;2.25;;;;;;;-148.88;100.00;-17125.47;5020928;28;20380;-84
2023/05/16 04:46:29;;;;;;;8.27;2.05;;;;;;;-148.88;100.00;-17125.47;5020129;28;20393;-85
2023/05/16 04:48:55;;;;;;;14.27;2.22;;;;;;;-148.88;100.00;-17125.47;5020210;28;20103;-85
2023/05/16 04:51:20;;;;;;;15.07;2.22;;;;;;;-148.88;100.00;-17125.47;5019950;28;20025;-85
2023/05/16 04:53:46;;;;;;;9.55;1.88;;;;;;;-148.88;100.00;-17125.47;5019935;28;20017;-86
2023/05/16 04:56:11;;;;;;;10.68;1.70;;;;;;;-148.88;100.00;-17125.47;5020078;28;20117;-85
2023/05/16 04:58:37;;;;;;;19.65;4.00;;;;;;;-148.88;100.00;-17125.47;5002064;28;20026;-84
2023/05/16 05:01:02;;;;;;;9.10;1.85;;;;;;;-148.88;100.00;-17125.47;5020425;28;20034;-84
2023/05/16 05:03:28;;;;;;;10.82;2.45;;;;;;;-148.88;100.00;-17125.47;5020101;28;20041;-85
2023/05/16 05:05:56;;;;;;;7.75;2.33;;;;;;;-148.88;100.00;-17125.47;5002730;28;20361;-86
2023/05/16 05:08:21;;;;;;;14.75;2.00;;;;;;;-148.88;100.00;-17125.47;5019557;28;20026;-84
2023/05/16 05:10:47;;;;;;;10.18;2.15;;;;;;;-148.88;100.00;-17125.47;5020131;28;20033;-86
2023/05/16 05:13:12;;;;;;;10.52;1.75;;;;;;;-148.88;100.00;-17125.47;5020914;28;20068;-86
2023/05/16 05:15:38;;;;;;;11.68;2.35;;;;;;;-148.88;100.00;-17125.47;5019905;28;20033;-85
2023/05/16 05:18:03;;;;;;;11.23;1.83;;;;;;;-148.88;100.00;-17125.47;5002223;28;20443;-87
2023/05/16 05:20:29;;;;;;;8.38;1.88;;;;;;;-148.88;100.00;-17125.47;5019630;28;20037;-86
2023/05/16 05:22:54;;;;;;;14.57;2.10;;;;;;;-148.88;100.00;-17125.47;5002082;28;20029;-84
2023/05/16 05:25:20;;;;;;;9.40;1.40;;;;;;;-148.88;100.00;-17125.47;5002952;28;20045;-84
2023/05/16 05:27:45;;;;;;;15.63;3.40;;;;;;;-148.88;100.00;-17125.47;5019962;28;20069;-86
2023/05/16 05:30:11;;;;;;;8.55;1.50;;;;;;;-148.88;100.00;-17125.47;5019558;28;20026;-85
2023/05/16 05:32:36;;;;;;;8.60;1.65;;;;;;;-148.88;100.00;-17125.47;5020201;28;20021;-86
2023/05/16 05:35:02;;;;;;;12.43;2.28;;;;;;;-148.88;100.00;-17125.47;5019782;28;20431;-84
2023/05/16 05:37:28;;;;;;;6.80;1.88;;;;;;;-148.88;100.00;-17125.47;5016564;28;20428;-83
2023/05/16 05:39:54;;;;;;;9.60;1.88;;;;;;;-148.88;100.00;-17125.47;4999138;28;20061;-84
2023/05/16 05:42:22;;;;;;;10.05;1.75;;;;;;;-148.88;100.00;-17125.47;4999155;28;20440;-85
2023/05/16 05:44:48;;;;;;;13.75;1.88;;;;;;;-148.88;100.00;-17125.47;5016275;28;20109;-85
2023/05/16 05:47:14;;;;;;;11.05;2.45;;;;;;;-148.88;100.00;-17125.47;4998697;28;20022;-87
2023/05/16 05:49:39;;;;;;;10.88;1.92;;;;;;;-148.88;100.00;-17125.47;5016202;28;20029;-88
2023/05/16 05:52:05;;;;;;;9.68;2.25;;;;;;;-148.88;100.00;-17125.47;4998761;28;20022;-86
2023/05/16 05:54:32;;;;;;;9.98;1.65;;;;;;;-148.88;100.00;-17125.47;5016090;28;20022;-90
2023/05/16 05:56:57;;;;;;;13.25;2.60;;;;;;;-148.88;100.00;-17125.47;5016053;28;20482;-89
2023/05/16 05:59:26;;;;;;;12.52;1.85;;;;;;;-148.88;100.00;-17125.47;5016092;28;20034;-86
2023/05/16 06:01:51;;;;;;;6.93;2.33;;;;;;;-148.88;100.00;-17125.47;4999592;28;20033;-85
2023/05/16 06:04:18;;;;;;;7.45;1.35;;;;;;;-148.88;100.00;-17125.47;5016097;28;20022;-86
2023/05/16 06:06:43;;;;;;;13.73;1.88;;;;;;;-148.88;100.00;-17125.47;4998310;28;20055;-86
2023/05/16 06:09:09;;;;;;;13.07;1.98;;;;;;;-148.88;100.00;-17125.47;5016901;28;20385;-87
2023/05/16 06:11:34;;;;;;;7.95;1.85;;;;;;;-148.88;100.00;-17125.47;5016424;28;20038;-84
2023/05/16 06:13:59;;;;;;;6.57;1.90;;;;;;;-148.88;100.00;-17125.47;5016116;28;20076;-86
2023/05/16 06:16:25;;;;;;;8.40;1.60;;;;;;;-148.88;100.00;-17125.47;4997792;28;20412;-85
2023/05/16 06:18:51;;;;;;;8.02;1.80;;;;;;;-148.88;100.00;-17125.47;5015557;28;20026;-85
2023/05/16 06:21:16;;;;;;;11.45;2.20;;;;;;;-148.88;100.00;-17125.47;5015773;28;20017;-86
2023/05/16 06:23:41;;;;;;;5.65;1.90;;;;;;;-148.88;100.00;-17125.47;5015279;28;20109;-86
2023/05/16 06:26:07;;;;;;;11.68;1.73;;;;;;;-148.88;100.00;-17125.47;5015332;28;20070;-86
2023/05/16 06:28:32;;;;;;;10.10;2.13;;;;;;;-148.88;100.00;-17125.47;4998096;28;20034;-85
2023/05/16 06:30:57;;;;;;;11.07;2.75;;;;;;;-148.88;100.00;-17125.47;5015789;28;20021;-87
2023/05/16 06:33:23;;;;;;;12.40;2.03;;;;;;;-148.88;100.00;-17125.47;5013396;28;20370;-84
2023/05/16 06:35:48;;;;;;;5.30;1.60;;;;;;;-148.88;100.00;-17125.47;5013040;28;20109;-84
2023/05/16 06:38:14;;;;;;;9.60;1.30;;;;;;;-148.88;98.72;-17125.47;5015186;28;20124;-86
2023/05/16 06:40:40;;;;;;;4.93;1.48;;;;;;;-148.88;100.00;-17125.47;4997166;28;20021;-88
2023/05/16 06:43:05;;;;;;;11.25;1.67;;;;;;;-148.88;100.00;-17125.47;5014946;28;20033;-87
2023/05/16 06:45:31;;;;;;;9.52;1.38;;;;;;;-148.88;98.43;-17125.47;5015221;28;20076;-86
2023/05/16 06:47:56;;;;;;;14.90;3.00;;;;;;;-148.88;98.17;-17125.47;4996479;28;20459;-84
2023/05/16 06:50:22;;;;;;;8.88;1.65;;;;;;;-148.88;97.00;-17125.47;5014534;28;20026;-84
2023/05/16 06:52:47;;;;;;;8.73;1.02;;;;;;;-148.88;94.43;-17125.47;5014719;28;20022;-87
2023/05/16 06:55:13;;;;;;;8.60;1.40;;;;;;;-148.88;94.63;-17125.47;4997902;28;20484;-86
2023/05/16 06:57:38;;;;;;;7.72;1.45;;;;;;;-148.88;96.70;-17125.47;5014818;28;20056;-86
2023/05/16 07:00:04;;;;;;;5.65;1.80;;;;;;;-148.88;93.58;-17125.47;5014292;28;20064;-87
2023/05/16 07:02:30;;;;;;;7.55;1.10;;;;;;;-148.88;96.25;-17125.47;5014557;28;20374;-87
2023/05/16 07:04:55;;;;;;;8.38;1.30;;;;;;;-148.88;93.70;-17125.47;4997036;28;20075;-89
2023/05/16 07:07:21;;;;;;;8.23;1.67;;;;;;;-148.88;94.81;-17125.47;4998046;28;20033;-92
2023/05/16 07:09:46;;;;;;;12.35;2.35;;;;;;;-148.88;92.96;-17125.47;5020238;28;20022;-93
2023/05/16 07:12:11;;;;;;;7.57;1.52;;;;;;;-148.88;94.29;-17125.47;5022671;28;20033;-93
2023/05/16 07:14:37;;;;;;;11.93;2.78;;;;;;;-148.88;92.24;-17125.47;5020963;28;20029;-90
2023/05/16 07:17:03;;;;;;;6.82;1.08;;;;;;;-148.88;95.02;-17125.47;5018711;28;20033;-93
2023/05/16 07:19:28;;;;;;;6.60;1.50;;;;;;;-148.88;94.56;-17125.47;5023406;28;20032;-91
2023/05/16 07:21:53;;;;;;;5.60;1.63;;;;;;;-148.88;95.62;-17125.47;5019787;28;20084;-91
2023/05/16 07:24:19;;;;;;;4.15;1.17;;;;;;;-148.88;96.58;-17125.47;5017562;28;20133;-91
2023/05/16 07:26:44;;;;;;;14.07;2.22;;;;;;;-148.88;90.41;-17125.47;5001122;28;20408;-88
2023/05/16 07:29:10;;;;;;;9.82;2.13;;;;;;;-148.88;87.70;-17125.47;4997512;28;20073;-89
2023/05/16 07:31:36;;;;;;;8.88;1.65;;;;;;;-148.88;89.53;-17125.47;5014226;28;20029;-89
2023/05/16 07:34:01;;;;;;;6.82;1.00;;;;;;;-148.88;90.18;-17125.47;4996460;28;20030;-85
2023/05/16 07:36:26;;;;;;;9.32;1.33;;;;;;;-148.88;91.02;-17125.47;5014022;28;20030;-87
2023/05/16 07:38:52;;;;;;;12.43;1.60;;;;;;;-148.88;92.97;-17125.47;5014688;28;20033;-86
2023/05/16 07:41:17;;;;;;;7.68;1.33;;;;;;;-148.88;93.82;-17125.47;5013941;28;20022;-87
2023/05/16 07:43:42;;;;;;;6.07;1.17;;;;;;;-148.88;82.19;-17125.47;4996497;28;20022;-87
2023/05/16 07:46:10;;;;;;;8.25;1.98;;;;;;;-148.88;85.26;-17125.47;5013935;28;20030;-87
2023/05/16 07:48:36;;;;;;;6.10;1.13;;;;;;;-148.88;80.77;-17125.47;5013756;28;20037;-87
2023/05/16 07:51:01;;;;;;;7.55;1.17;;;;;;;-148.88;84.58;-17125.47;5013834;28;20025;-86
2023/05/16 07:53:27;;;;;;;5.38;1.13;;;;;;;-148.88;83.97;-17125.47;5013941;28;20026;-87
2023/05/16 07:55:52;;;;;;;13.70;2.33;;;;;;;-148.88;87.65;-17125.47;5013657;28;20132;-87
2023/05/16 07:58:18;;;;;;;10.60;2.30;;;;;;;-148.88;86.83;-17125.47;5013866;28;20084;-87
2023/05/16 08:00:44;;;;;;;5.75;1.20;;;;;;;-148.88;88.03;-17125.47;5012839;28;20480;-87
2023/05/16 08:03:09;;;;;;;6.57;0.98;;;;;;;-148.88;83.30;-17125.47;5014089;28;20088;-85
2023/05/16 08:05:35;;;;;;;5.15;1.80;;;;;;;-148.88;81.43;-17125.47;5013692;28;20034;-87
2023/05/16 08:08:00;;;;;;;7.03;2.22;;;;;;;-148.88;85.33;-17125.47;5013507;28;20049;-88
2023/05/16 08:10:25;;;;;;;5.82;1.10;;;;;;;-148.88;83.53;-17125.47;5013967;28;20124;-88
2023/05/16 08:12:52;;;;;;;11.40;1.50;;;;;;;-148.88;85.87;-17125.47;5022331;28;20033;-91
2023/05/16 08:15:17;;;;;;;9.88;1.90;;;;;;;-148.88;82.74;-17125.47;5021646;28;20046;-91
2023/05/16 08:17:43;;;;;;;6.05;1.05;;;;;;;-148.88;80.44;-17125.47;5017017;28;20045;-89
2023/05/16 08:20:08;;;;;;;9.35;1.70;;;;;;;-148.88;81.80;-17125.47;5018615;28;20026;-91
2023/05/16 08:22:34;;;;;;;7.40;1.85;;;;;;;-148.88;77.34;-17125.47;5018831;28;20029;-92
2023/05/16 08:25:00;;;;;;;8.23;1.80;;;;;;;-148.88;80.69;-17125.47;5017084;28;20111;-90
2023/05/16 08:27:27;;;;;;;8.88;1.95;;;;;;;-148.88;76.07;-17125.47;4999433;28;20026;-91
2023/05/16 08:29:52;;;;;;;6.93;1.77;;;;;;;-148.88;71.82;-17125.47;5015938;28;20018;-91
2023/05/16 08:32:17;;;;;;;7.25;1.67;;;;;;;-148.88;73.00;-17125.47;5000216;28;20037;-91
2023/05/16 08:34:43;;;;;;;6.53;1.60;;;;;;;-148.88;70.79;-17125.47;5003227;28;20033;-92
2023/05/16 08:37:09;;;;;;;10.20;1.60;;;;;;;-148.88;72.70;-17125.47;5019460;28;20022;-90
2023/05/16 08:39:35;;;;;;;8.18;1.67;;;;;;;-148.88;68.33;-17125.47;5016212;28;20076;-92
2023/05/16 08:42:00;;;;;;;7.65;1.50;;;;;;;-148.88;72.30;-17125.47;5021613;28;20026;-89
2023/05/16 08:44:27;;;;;;;8.40;1.80;;;;;;;-148.88;74.55;-17125.47;5015254;28;20034;-90
2023/05/16 08:46:53;;;;;;;11.52;1.75;;;;;;;-148.88;76.89;-17125.47;5013394;28;20022;-85
2023/05/16 08:49:20;;;;;;;9.10;1.77;;;;;;;-148.88;80.71;-17125.47;4995943;28;20051;-89
2023/05/16 08:51:46;;;;;;;10.15;1.63;;;;;;;-148.88;78.62;-17125.47;5013742;28;20030;-89
2023/05/16 08:54:13;;;;;;;5.70;1.30;;;;;;;-148.88;73.42;-17125.47;4995614;28;20037;-89
2023/05/16 08:56:41;;;;;;;7.38;1.60;;;;;;;-148.88;72.91;-17125.47;5013093;28;20033;-88
2023/05/16 08:59:07;;;;;;;8.80;1.70;;;;;;;-148.88;74.41;-17125.47;5012936;28;20025;-89
2023/05/16 09:01:36;;;;;;;4.80;1.55;;;;;;;-148.88;75.59;-17125.47;5013479;28;20041;-89
2023/05/16 09:04:03;;;;;;;9.27;2.22;;;;;;;-148.88;72.97;-17125.47;5013566;28;20040;-89
2023/05/16 09:06:28;;;;;;;4.97;0.98;;;;;;;-148.88;71.63;-17125.47;5013081;28;20030;-87
2023/05/16 09:08:54;;;;;;;3.90;0.80;;;;;;;-148.88;62.38;-17125.47;5013057;28;20030;-88
2023/05/16 09:11:20;;;;;;;5.25;1.30;;;;;;;-148.88;66.01;-17125.47;4997316;28;20483;-88
2023/05/16 09:13:47;;;;;;;5.68;1.60;;;;;;;-148.88;66.68;-17125.47;4999472;28;20034;-92
2023/05/16 09:16:17;;;;;;;8.50;1.88;;;;;;;-148.88;70.99;-17125.47;5018191;28;20025;-87
2023/05/16 09:18:57;;;;;;;7.78;1.40;;;;;;;-148.88;72.54;-17125.47;5016775;28;20376;-89
2023/05/16 09:21:30;;;;;;;8.73;2.00;;;;;;;-148.88;74.01;-17125.47;5017115;28;20099;-88
2023/05/16 09:24:01;;;;;;;9.57;1.77;;;;;;;-148.88;71.24;-17125.47;4999313;28;20048;-89
2023/05/16 09:26:27;;;;;;;11.27;1.75;;;;;;;-148.88;71.22;-17125.47;4999328;28;20384;-86
2023/05/16 09:28:54;;;;;;;7.60;1.52;;;;;;;-148.88;69.52;-17125.47;5016694;28;20021;-88
2023/05/16 09:31:25;;;;;;;7.15;1.67;;;;;;;-148.88;73.88;-17125.47;5016404;28;20025;-88
2023/05/16 09:33:59;;;;;;;7.55;1.60;;;;;;;-148.88;70.06;-17125.47;4998687;28;20053;-87
2023/05/16 09:36:25;;;;;;;6.07;1.42;;;;;;;-148.88;65.86;-17125.47;5016702;28;20025;-84
2023/05/16 09:38:51;;;;;;;5.72;1.48;;;;;;;-148.88;63.86;-17125.47;5016411;28;20032;-86
2023/05/16 09:41:16;;;;;;;6.20;1.50;;;;;;;-148.88;69.54;-17125.47;5016580;28;20021;-87
2023/05/16 09:43:43;;;;;;;7.90;1.42;;;;;;;-148.88;62.76;-17125.47;5016579;28;20484;-86
2023/05/16 09:46:15;;;;;;;8.57;1.42;;;;;;;-148.88;64.35;-17125.47;5016367;28;20026;-89
2023/05/16 09:48:44;;;;;;;6.45;1.50;;;;;;;-148.88;67.30;-17125.47;5016389;28;20125;-86
2023/05/16 09:51:11;;;;;;;5.82;1.65;;;;;;;-148.88;66.71;-17125.47;4998735;28;20523;-90
2023/05/16 09:53:37;;;;;;;6.28;1.30;;;;;;;-148.88;66.94;-17125.47;5016282;28;20030;-88
2023/05/16 09:56:07;;;;;;;5.18;1.27;;;;;;;-148.88;68.36;-17125.47;5016144;28;20030;-88
2023/05/16 09:58:34;;;;;;;8.02;1.63;;;;;;;-148.88;70.22;-17125.47;5015841;28;20017;-88
2023/05/16 10:01:01;;;;;;;6.05;1.60;;;;;;;-148.88;69.60;-17125.47;5016462;28;20045;-85
2023/05/16 10:03:27;;;;;;;6.13;1.50;;;;;;;-148.88;66.55;-17125.47;5016245;28;20022;-89
2023/05/16 10:05:53;;;;;;;8.82;1.85;;;;;;;-148.88;63.97;-17125.47;5016145;28;20030;-88
2023/05/16 10:08:24;;;;;;;5.18;1.40;;;;;;;-148.88;60.94;-17125.47;5015780;28;20022;-89
2023/05/16 10:10:51;;;;;;;4.47;1.17;;;;;;;-148.88;62.75;-17125.47;5016102;28;20032;-89
2023/05/16 10:13:22;;;;;;;5.03;1.27;;;;;;;-148.88;58.72;-17125.47;5015583;28;20025;-88
2023/05/16 10:15:54;;;;;;;8.13;1.40;;;;;;;-148.88;62.63;-17125.47;5016163;28;20018;-89
2023/05/16 10:18:20;;;;;;;5.30;1.20;;;;;;;-148.88;64.36;-17125.47;5015462;28;20023;-88
2023/05/16 10:20:49;;;;;;;4.55;1.25;;;;;;;-148.88;65.32;-17125.47;4998162;28;20036;-88
2023/05/16 10:23:18;;;;;;;7.35;1.42;;;;;;;-148.88;70.98;-17125.47;4997285;28;20014;-89
2023/05/16 10:25:45;;;;;;;8.95;1.40;;;;;;;-148.88;69.44;-17125.47;4998371;28;20106;-88
2023/05/16 10:28:11;;;;;;;8.00;1.30;;;;;;;-148.88;64.55;-17125.47;5015359;28;20026;-87
2023/05/16 10:30:40;;;;;;;5.68;1.50;;;;;;;-148.88;59.96;-17125.47;5015318;28;20017;-89
2023/05/16 10:33:06;;;;;;;5.65;1.35;;;;;;;-148.88;58.54;-17125.47;5015145;28;20018;-88
2023/05/16 10:35:33;;;;;;;5.68;1.30;;;;;;;-148.88;61.14;-17125.47;4997821;28;20373;-88
2023/05/16 10:38:00;;;;;;;5.03;1.48;;;;;;;-148.88;57.63;-17125.47;5015033;28;20013;-86
2023/05/16 10:40:27;;;;;;;3.97;1.35;;;;;;;-148.88;60.69;-17125.47;5014947;28;20116;-85
2023/05/16 10:43:00;;;;;;;6.22;1.23;;;;;;;-148.88;63.66;-17125.47;5015217;28;20028;-88
2023/05/16 10:45:26;;;;;;;4.00;1.25;;;;;;;-148.88;67.31;-17125.47;5014946;28;20057;-88
2023/05/16 10:47:55;;;;;;;8.07;1.40;;;;;;;-148.88;72.13;-17125.47;5015307;28;20108;-88
2023/05/16 10:50:38;;;;;;;5.28;1.67;;;;;;;-148.88;78.97;-17125.47;5014899;28;20480;-88
2023/05/16 10:53:15;;;;;;;4.97;1.52;;;;;;;-148.88;75.75;-17125.47;5014900;28;20021;-89
2023/05/16 10:56:07;;;;;;;10.73;1.60;;;;;;;-148.88;73.91;-17125.47;4997148;28;20025;-89
2023/05/16 10:58:39;;;;;;;5.53;1.50;;;;;;;-148.88;74.91;-17125.47;5006140;28;20518;-88
2023/05/16 11:01:33;;;;;;;7.07;1.63;;;;;;;-148.88;67.94;-17125.47;4997106;28;20034;-85